Belocean — 9V8782 — position and weather

sailwx.info

Track history (hours):
 
Tides and Currents Weather Stations Pressure Air Temp Water Temp Dewpoint Dewpoint Depression Visibility Wind Speed Wind Dir Waves Ship Positions

Belocean

Last reported at 2017-Feb-24 18:13 UTC. Time now 2017-Feb-25 22:50 UTC.
Position N 27°30' W 015°18'.

Length 190 m; draft 11 m.

Type: Ship. MMSI: 563582000.

Date/timePositionNaut miles runAvg speedWind from/ knotsBaromVisibWave heightAir tempDewpointWater temp
2017-Feb-24 18:13N 27°30' W 015°18'812.5
2017-Feb-24 17:33N 27°37' W 015°14'1312.8
2017-Feb-24 16:33N 27°49' W 015°07'1312.9
2017-Feb-24 15:34N 28°01' W 015°03'1212.4
2017-Feb-24 14:34N 28°13' W 014°58'1212.3
2017-Feb-24 13:34N 28°25' W 014°54'1212.3
2017-Feb-24 12:33N 28°37' W 014°51'  
2017-Feb-22 05:05N 39°41' W 011°39'3112.2
2017-Feb-22 02:33N 40°11' W 011°29'57311.9
2017-Feb-20 02:26N 48°51' W 005°49'1011.3
2017-Feb-20 01:31N 48°58' W 005°38'1311.3
2017-Feb-20 00:21N 49°05' W 005°21'6711.5
2017-Feb-19 18:32N 49°40' W 003°53'1212.3
2017-Feb-19 17:31N 49°47' W 003°37'1212.2
2017-Feb-19 16:33N 49°53' W 003°22'1211.7
2017-Feb-19 15:34N 49°58' W 003°05'3710.9
2017-Feb-19 12:08N 50°07' W 002°09'610.7
2017-Feb-19 11:33N 50°08' W 001°60'1111.1
2017-Feb-19 10:34N 50°11' W 001°43'1212.3
2017-Feb-19 09:33N 50°15' W 001°24'1414.2
2017-Feb-19 08:33N 50°18' W 001°03'1613.9
2017-Feb-19 07:25N 50°22' W 000°39'1213.5
2017-Feb-19 06:33N 50°26' W 000°22'1313.2
2017-Feb-19 05:33N 50°29' W 000°01'1312.7
2017-Feb-19 04:33N 50°32' E 000°18'1212.0
2017-Feb-19 03:33N 50°36' E 000°36'1211.6
2017-Feb-19 02:34N 50°43' E 000°51'1211.8
2017-Feb-19 01:33N 50°50' E 001°06'1312.7
2017-Feb-19 00:33N 50°57' E 001°22'1413.7
2017-Feb-18 23:33N 51°08' E 001°36'1313.3
2017-Feb-18 22:33N 51°18' E 001°49'1212.3
2017-Feb-18 21:33N 51°29' E 001°59'1211.7
2017-Feb-18 20:33N 51°37' E 002°12'1111.4
2017-Feb-18 19:33N 51°46' E 002°24'1111.0
2017-Feb-18 18:33N 51°55' E 002°35'1411.3
2017-Feb-18 17:17N 52°08' E 002°43'1212.0
2017-Feb-18 16:19N 52°19' E 002°50'1012.7
2017-Feb-18 15:33N 52°28' E 002°55'1313.0
2017-Feb-18 14:33N 52°40' E 003°03'1413.1
2017-Feb-18 13:27N 52°54' E 003°11'1212.9
2017-Feb-18 12:29N 53°05' E 003°19'2312.0
2017-Feb-18 10:33N 53°27' E 003°32'20812.2
2017-Feb-17 17:32N 56°14' E 007°06'1212.4
2017-Feb-17 16:32N 56°25' E 007°19'13311.1
2017-Feb-17 04:34N 57°47' E 010°31'8 8.1
2017-Feb-17 03:34N 57°44' E 010°45'4 3.4
2017-Feb-17 02:30N 57°42' E 010°39'0 0.0
2017-Feb-17 01:33N 57°42' E 010°39'0 0.0
2017-Feb-17 00:33N 57°42' E 010°39'0 0.0
2017-Feb-16 23:33N 57°42' E 010°39'0 0.0
2017-Feb-16 22:33N 57°42' E 010°39'0 0.0
2017-Feb-16 21:27N 57°42' E 010°39'0 0.0
2017-Feb-16 20:30N 57°42' E 010°39'0 0.0
2017-Feb-16 19:33N 57°42' E 010°39'0 0.0
2017-Feb-16 18:33N 57°42' E 010°39'0 0.0
2017-Feb-16 17:33N 57°42' E 010°39'0 0.2
2017-Feb-16 16:33N 57°42' E 010°39'2 1.7
2017-Feb-16 15:33N 57°43' E 010°42'6 6.5
2017-Feb-16 14:33N 57°44' E 010°54'1212.4
2017-Feb-16 13:33N 57°36' E 011°11'1212.1
2017-Feb-16 12:33N 57°27' E 011°27'1212.4
2017-Feb-16 11:33N 57°16' E 011°35'1212.0
2017-Feb-16 10:33N 57°04' E 011°42'5511.0
2017-Feb-16 05:31N 56°11' E 011°17'1110.8
2017-Feb-16 04:28N 56°01' E 011°06'1111.7
2017-Feb-16 03:32N 55°53' E 010°54'2911.8
2017-Feb-16 01:04N 55°24' E 011°01'712.5
2017-Feb-16 00:31N 55°17' E 011°04'1111.4
2017-Feb-15 23:33N 55°06' E 010°59'1212.3
2017-Feb-15 22:33N 54°55' E 010°52'1313.0
2017-Feb-15 21:33N 54°42' E 010°47'1212.0
2017-Feb-15 20:33N 54°36' E 011°05'1212.5
2017-Feb-15 19:33N 54°32' E 011°25'1312.7
2017-Feb-15 18:33N 54°27' E 011°45'1212.1
2017-Feb-15 17:33N 54°26' E 012°06'1311.4
2017-Feb-15 16:23N 54°37' E 012°20'1112.4
2017-Feb-15 15:31N 54°43' E 012°35'1010.6
2017-Feb-15 14:33N 54°48' E 012°50'1111.3
2017-Feb-15 13:33N 54°53' E 013°08'1212.1
2017-Feb-15 12:32N 54°57' E 013°29'1212.3
2017-Feb-15 11:33N 55°01' E 013°48'1211.8
2017-Feb-15 10:33N 55°06' E 014°07'1212.2
2017-Feb-15 09:33N 55°16' E 014°20'1212.2
2017-Feb-15 08:33N 55°25' E 014°34'1312.8
2017-Feb-15 07:33N 55°33' E 014°51'1312.6
2017-Feb-15 06:33N 55°40' E 015°10'1212.2
2017-Feb-15 05:33N 55°46' E 015°29'1312.3
2017-Feb-15 04:32N 55°52' E 015°49'  
Track history (hours):
 
Tides and Currents Weather Stations Pressure Air Temp Water Temp Dewpoint Dewpoint Depression Visibility Wind Speed Wind Dir Waves Ship Positions

Belocean

Last reported at 2017-Feb-24 18:13 UTC. Time now 2017-Feb-25 22:50 UTC.
Position N 27°30' W 015°18'.

Length 190 m; draft 11 m.

Type: Ship. MMSI: 563582000.

Date/timePositionNaut miles runAvg speedWind from/ knotsBaromVisibWave heightAir tempDewpointWater temp
2017-Feb-24 18:13N 27°30' W 015°18'812.5
2017-Feb-24 17:33N 27°37' W 015°14'1312.8
2017-Feb-24 16:33N 27°49' W 015°07'1312.9
2017-Feb-24 15:34N 28°01' W 015°03'1212.4
2017-Feb-24 14:34N 28°13' W 014°58'1212.3
2017-Feb-24 13:34N 28°25' W 014°54'1212.3
2017-Feb-24 12:33N 28°37' W 014°51'  
2017-Feb-22 05:05N 39°41' W 011°39'3112.2
2017-Feb-22 02:33N 40°11' W 011°29'57311.9
2017-Feb-20 02:26N 48°51' W 005°49'1011.3
2017-Feb-20 01:31N 48°58' W 005°38'1311.3
2017-Feb-20 00:21N 49°05' W 005°21'6711.5
2017-Feb-19 18:32N 49°40' W 003°53'1212.3
2017-Feb-19 17:31N 49°47' W 003°37'1212.2
2017-Feb-19 16:33N 49°53' W 003°22'1211.7
2017-Feb-19 15:34N 49°58' W 003°05'3710.9
2017-Feb-19 12:08N 50°07' W 002°09'610.7
2017-Feb-19 11:33N 50°08' W 001°60'1111.1
2017-Feb-19 10:34N 50°11' W 001°43'1212.3
2017-Feb-19 09:33N 50°15' W 001°24'1414.2
2017-Feb-19 08:33N 50°18' W 001°03'1613.9
2017-Feb-19 07:25N 50°22' W 000°39'1213.5
2017-Feb-19 06:33N 50°26' W 000°22'1313.2
2017-Feb-19 05:33N 50°29' W 000°01'1312.7
2017-Feb-19 04:33N 50°32' E 000°18'1212.0
2017-Feb-19 03:33N 50°36' E 000°36'1211.6
2017-Feb-19 02:34N 50°43' E 000°51'1211.8
2017-Feb-19 01:33N 50°50' E 001°06'1312.7
2017-Feb-19 00:33N 50°57' E 001°22'1413.7
2017-Feb-18 23:33N 51°08' E 001°36'1313.3
2017-Feb-18 22:33N 51°18' E 001°49'1212.3
2017-Feb-18 21:33N 51°29' E 001°59'1211.7
2017-Feb-18 20:33N 51°37' E 002°12'1111.4
2017-Feb-18 19:33N 51°46' E 002°24'1111.0
2017-Feb-18 18:33N 51°55' E 002°35'1411.3
2017-Feb-18 17:17N 52°08' E 002°43'1212.0
2017-Feb-18 16:19N 52°19' E 002°50'1012.7
2017-Feb-18 15:33N 52°28' E 002°55'1313.0
2017-Feb-18 14:33N 52°40' E 003°03'1413.1
2017-Feb-18 13:27N 52°54' E 003°11'1212.9
2017-Feb-18 12:29N 53°05' E 003°19'2312.0
2017-Feb-18 10:33N 53°27' E 003°32'20812.2
2017-Feb-17 17:32N 56°14' E 007°06'1212.4
2017-Feb-17 16:32N 56°25' E 007°19'13311.1
2017-Feb-17 04:34N 57°47' E 010°31'8 8.1
2017-Feb-17 03:34N 57°44' E 010°45'4 3.4
2017-Feb-17 02:30N 57°42' E 010°39'0 0.0
2017-Feb-17 01:33N 57°42' E 010°39'0 0.0
2017-Feb-17 00:33N 57°42' E 010°39'0 0.0
2017-Feb-16 23:33N 57°42' E 010°39'0 0.0
2017-Feb-16 22:33N 57°42' E 010°39'0 0.0
2017-Feb-16 21:27N 57°42' E 010°39'0 0.0
2017-Feb-16 20:30N 57°42' E 010°39'0 0.0
2017-Feb-16 19:33N 57°42' E 010°39'0 0.0
2017-Feb-16 18:33N 57°42' E 010°39'0 0.0
2017-Feb-16 17:33N 57°42' E 010°39'0 0.2
2017-Feb-16 16:33N 57°42' E 010°39'2 1.7
2017-Feb-16 15:33N 57°43' E 010°42'6 6.5
2017-Feb-16 14:33N 57°44' E 010°54'1212.4
2017-Feb-16 13:33N 57°36' E 011°11'1212.1
2017-Feb-16 12:33N 57°27' E 011°27'1212.4
2017-Feb-16 11:33N 57°16' E 011°35'1212.0
2017-Feb-16 10:33N 57°04' E 011°42'5511.0
2017-Feb-16 05:31N 56°11' E 011°17'1110.8
2017-Feb-16 04:28N 56°01' E 011°06'1111.7
2017-Feb-16 03:32N 55°53' E 010°54'2911.8
2017-Feb-16 01:04N 55°24' E 011°01'712.5
2017-Feb-16 00:31N 55°17' E 011°04'1111.4
2017-Feb-15 23:33N 55°06' E 010°59'1212.3
2017-Feb-15 22:33N 54°55' E 010°52'1313.0
2017-Feb-15 21:33N 54°42' E 010°47'1212.0
2017-Feb-15 20:33N 54°36' E 011°05'1212.5
2017-Feb-15 19:33N 54°32' E 011°25'1312.7
2017-Feb-15 18:33N 54°27' E 011°45'1212.1
2017-Feb-15 17:33N 54°26' E 012°06'1311.4
2017-Feb-15 16:23N 54°37' E 012°20'1112.4
2017-Feb-15 15:31N 54°43' E 012°35'1010.6
2017-Feb-15 14:33N 54°48' E 012°50'1111.3
2017-Feb-15 13:33N 54°53' E 013°08'1212.1
2017-Feb-15 12:32N 54°57' E 013°29'1212.3
2017-Feb-15 11:33N 55°01' E 013°48'1211.8
2017-Feb-15 10:33N 55°06' E 014°07'1212.2
2017-Feb-15 09:33N 55°16' E 014°20'1212.2
2017-Feb-15 08:33N 55°25' E 014°34'1312.8
2017-Feb-15 07:33N 55°33' E 014°51'1312.6
2017-Feb-15 06:33N 55°40' E 015°10'1212.2
2017-Feb-15 05:33N 55°46' E 015°29'1312.3
2017-Feb-15 04:32N 55°52' E 015°49'  

Dump ship's entire track history